Powell, MO (65730)

2:36 AM CDT on March 29, 2017 (GMT -0500)
knoyle | | Change Station
Active Advisory: Special Statement

Elev 1309 ft 36.46 °N, 94.21 °W | Updated 18 minutes ago

Thunderstorm
Thunderstorm
60.7 °F
Feels Like 60.7 °F
N
6.0
Wind Variable Wind from ESE

Today
High -- | Low -- °F
--% Chance of Precip.
Yesterday
High -- | Low -- °F
Precip. -- in
Pressure 29.79 in
Visibility 10.0 miles
Clouds Mostly Cloudy 8500 ft
Overcast 10000 ft
Dew Point 55 °F
Humidity 81%
Rainfall 0.00 in
Snow Depth Not available.
7:06 AM 7:36 PM
New Moon, 2% visible
METAR KROG 290658Z AUTO 11014G18KT 10SM BKN085 OVC100 16/13 A2982 RMK AO2 LTG DSNT W SLP088 T01610128
Pressure 29.79 in
Visibility 10.0 miles
Clouds Mostly Cloudy 8500 ft
Overcast 10000 ft
Dew Point 55 °F
Humidity 81%
Rainfall 0.00 in
Snow Depth Not available.
7:06 AM 7:36 PM
New Moon, 2% visible
METAR KROG 290658Z AUTO 11014G18KT 10SM BKN085 OVC100 16/13 A2982 RMK AO2 LTG DSNT W SLP088 T01610128

Get Your Daily Forecast Email!

Thanks for signing up!

Be on the lookout for a verification email in your inbox.

You'll start receiving severe weather alerts in your inbox..

×

10-Day Weather Forecast

Almanac

Astronomy

Mar. 29, 2017 Rise Set
Actual Time
Civil Twilight
Nautical Twilight
Astronomical Twilight
Moon
Length of Visible Light
Length of Day
Tomorrow will be .
, % of the Moon is Illuminated

Today's Extremes

State Highs State Lows

Community

WunderPhotos

Upload Photos

1,962,540 photos uploaded!

WunderBlog® & News

Nearby

Air Quality

  Air Quality AQ Index Pollutant
Not available.

Snow Depth

Station Depth Elevation

Earthquake Activity

City Distance Mag. Time & Date
Minimum magnitude displayed is 2.5.

Earthquake Activity

City Distance Mag. Time & Date
Minimum magnitude displayed is 2.5.

Coastal Water Temperatures

Place Temperature

Stations

Nearby Weather Stations

Station Location Temp. Windchill Dew Point Humidity Wind Precip. Elev Updated Type
                   

Watches & Warnings

Special Statement
Issued: 1:59 AM CDT Mar. 29, 2017 – National Weather Service

... Significant weather advisory for western Newton and western
McDonald counties until 245 am CDT...

At 158 am CDT, Doppler radar was tracking a strong thunderstorm near
Jay, moving north at 50 mph.

Nickel size hail and wind gusts up to 50 mph will be possible with
this storm.

Locations impacted include...
Neosho... Seneca...
Granby... Anderson...
Noel... Dodge...
Goodman... South West City...
Diamond... Loma Linda...
Lanagan... Cayuga...
Tiff City... Racine...

Lat... Lon 3691 9462 3700 9461 3700 9424 3650 9448
      3650 9462
time... Mot... loc 0658z 190deg 49kt 3647 9471


Griffin